Somerset, Maryland
Current Conditions -  °F | °C
As of 6:55 PM on Saturday 22 Nov 2014 (Local Time) from KCGS Reporting Station
Clear Clear  
Wind Chill: 45°   Ceiling: Unl
Heat Index: 45°   Visibility: 10mi
Dew Point: 18°   Wind: 0mph
Humidity: 34%   Direction: NA
Pressure: 30.3"   Gusts: NA
Location:  38.9825°N, 77.0796°W
Report Text: KCGS 222355Z AUTO 00000KT 10SM CLR 07/M08 A3030 RMK AO1
Loading
Personal Weather Stations






























Interactive Weather Map New forecast layout! Learn more

10-Day Weather Forecast

Advertisements
Track Severe Weather on mobile